Time;durP1;ratioP1;P1;durP2;ratioP2;P2;SDS_P1;SDS_P2;PMS_P1;PMS_P2;Temp;Humidity;BMP_temperature;BMP_pressure;BME280_temperature;BME280_humidity;BME280_pressure;Samples;Min_cycle;Max_cycle;Signal;HPM_P1;HPM_P2
2024/04/06 00:02:16;;;;;;;3.70;3.37;;;16.10;99.90;;;;;;4991917;28;20193;-73
2024/04/06 00:04:42;;;;;;;3.37;3.13;;;16.00;99.90;;;;;;4991766;28;20177;-73
2024/04/06 00:07:08;;;;;;;3.30;3.00;;;16.10;99.90;;;;;;4991976;28;20260;-73
2024/04/06 00:09:34;;;;;;;3.00;2.80;;;16.00;99.90;;;;;;4992213;28;20588;-74
2024/04/06 00:12:00;;;;;;;3.20;3.00;;;16.00;99.90;;;;;;4991867;28;20192;-74
2024/04/06 00:14:25;;;;;;;3.90;3.27;;;16.00;99.90;;;;;;4991739;28;20307;-73
2024/04/06 00:16:51;;;;;;;3.53;3.10;;;15.90;99.90;;;;;;4991685;28;20251;-73
2024/04/06 00:19:16;;;;;;;3.30;2.93;;;15.90;99.90;;;;;;4992200;28;20602;-74
2024/04/06 00:21:42;;;;;;;2.60;2.40;;;15.80;99.90;;;;;;4995257;28;20192;-74
2024/04/06 00:24:08;;;;;;;2.90;2.70;;;15.80;99.90;;;;;;4995055;28;20183;-73
2024/04/06 00:26:33;;;;;;;5.00;3.60;;;15.80;99.90;;;;;;4994646;28;20215;-72
2024/04/06 00:29:00;;;;;;;3.43;3.00;;;15.70;99.90;;;;;;4994536;28;20185;-73
2024/04/06 00:31:25;;;;;;;3.10;2.90;;;15.70;99.90;;;;;;4994741;28;20215;-73
2024/04/06 00:33:51;;;;;;;3.70;3.00;;;15.60;99.90;;;;;;4994673;28;20181;-75
2024/04/06 00:36:17;;;;;;;4.37;3.10;;;15.60;99.90;;;;;;4994988;28;20651;-72
2024/04/06 00:38:42;;;;;;;3.07;2.87;;;15.50;99.90;;;;;;4994281;28;20176;-72
2024/04/06 00:41:08;;;;;;;3.83;3.30;;;15.50;99.90;;;;;;4994377;28;20192;-72
2024/04/06 00:43:34;;;;;;;3.60;3.27;;;15.50;99.90;;;;;;4994527;28;20181;-73
2024/04/06 00:46:00;;;;;;;3.33;3.03;;;15.40;99.90;;;;;;4994668;28;20187;-73
2024/04/06 00:48:25;;;;;;;3.53;3.23;;;15.40;99.90;;;;;;4994366;28;20255;-73
2024/04/06 00:51:00;;;;;;;4.57;3.60;;;15.40;99.90;;;;;;4994591;28;20169;-73
2024/04/06 00:53:25;;;;;;;3.73;3.43;;;15.30;99.90;;;;;;4994763;28;20535;-73
2024/04/06 00:55:51;;;;;;;3.10;2.90;;;15.30;99.90;;;;;;4994514;28;20211;-72
2024/04/06 00:58:17;;;;;;;3.47;3.17;;;15.30;99.90;;;;;;4993986;28;20181;-71
2024/04/06 01:00:43;;;;;;;4.23;3.83;;;15.30;99.90;;;;;;4994279;28;20162;-72
2024/04/06 01:03:09;;;;;;;4.97;3.70;;;15.30;99.90;;;;;;4994484;28;20181;-72
2024/04/06 01:05:35;;;;;;;4.43;3.37;;;15.20;99.90;;;;;;4994393;28;20239;-72
2024/04/06 01:08:01;;;;;;;3.97;3.60;;;15.20;99.90;;;;;;4993861;28;20187;-72
2024/04/06 01:10:27;;;;;;;6.17;3.17;;;15.10;99.90;;;;;;4994417;28;20606;-73
2024/04/06 01:12:52;;;;;;;3.47;3.17;;;15.10;99.90;;;;;;4994080;28;20682;-72
2024/04/06 01:15:18;;;;;;;4.57;3.30;;;15.10;99.90;;;;;;4994205;28;20220;-73
2024/04/06 01:17:44;;;;;;;4.67;3.07;;;15.10;99.90;;;;;;4994178;28;20169;-73
2024/04/06 01:20:11;;;;;;;3.90;3.50;;;15.10;99.90;;;;;;4994259;28;20204;-72
2024/04/06 01:22:37;;;;;;;4.97;3.37;;;15.00;99.90;;;;;;4993844;28;20216;-73
2024/04/06 01:25:04;;;;;;;4.43;3.77;;;15.00;99.90;;;;;;4994335;28;20642;-72
2024/04/06 01:27:30;;;;;;;3.70;3.40;;;15.00;99.90;;;;;;4993960;28;20276;-73
2024/04/06 01:29:56;;;;;;;4.70;3.40;;;14.90;99.90;;;;;;4994145;28;20204;-72
2024/04/06 01:32:21;;;;;;;4.27;3.70;;;14.80;99.90;;;;;;4993718;28;20223;-72
2024/04/06 01:34:47;;;;;;;4.47;3.70;;;14.80;99.90;;;;;;4993566;28;20219;-72
2024/04/06 01:37:15;;;;;;;5.87;4.47;;;14.70;99.90;;;;;;4993903;28;20603;-72
2024/04/06 01:39:40;;;;;;;4.03;3.73;;;14.60;99.90;;;;;;4993394;28;20173;-72
2024/04/06 01:42:06;;;;;;;6.27;4.47;;;14.60;99.90;;;;;;4992767;28;20475;-72
2024/04/06 01:44:32;;;;;;;6.87;4.87;;;14.60;99.90;;;;;;4992708;28;20181;-72
2024/04/06 01:46:58;;;;;;;5.10;4.60;;;14.50;99.90;;;;;;4992821;28;20220;-73
2024/04/06 01:49:23;;;;;;;4.73;4.20;;;14.40;99.90;;;;;;4993508;28;20684;-72
2024/04/06 01:51:49;;;;;;;5.33;4.70;;;14.40;99.90;;;;;;4993160;28;20224;-72
2024/04/06 01:54:15;;;;;;;5.73;4.20;;;14.30;99.90;;;;;;4993744;28;20196;-72
2024/04/06 01:56:40;;;;;;;4.97;4.50;;;14.30;99.90;;;;;;4993701;28;20176;-73
2024/04/06 01:59:06;;;;;;;6.67;4.27;;;14.20;99.90;;;;;;4993773;28;20173;-73
2024/04/06 02:01:31;;;;;;;5.33;4.93;;;14.20;99.90;;;;;;4993843;28;20188;-72
2024/04/06 02:03:57;;;;;;;5.63;4.47;;;14.10;99.90;;;;;;4993295;28;20642;-72
2024/04/06 02:06:23;;;;;;;4.50;4.10;;;14.00;99.90;;;;;;4993346;28;20176;-72
2024/04/06 02:08:48;;;;;;;6.10;4.20;;;13.90;99.90;;;;;;4993389;28;20181;-73
2024/04/06 02:11:14;;;;;;;6.17;4.40;;;13.90;99.90;;;;;;4993471;28;20181;-72
2024/04/06 02:13:40;;;;;;;5.60;4.20;;;13.80;99.90;;;;;;4993233;28;20176;-73
2024/04/06 02:16:05;;;;;;;4.87;4.37;;;13.70;99.90;;;;;;4993458;28;20201;-71
2024/04/06 02:18:31;;;;;;;5.40;4.00;;;13.70;99.90;;;;;;4993962;28;20235;-72
2024/04/06 02:20:56;;;;;;;6.27;3.77;;;13.70;99.90;;;;;;4993248;28;20224;-72
2024/04/06 02:23:22;;;;;;;4.10;3.70;;;13.60;99.90;;;;;;4993105;28;20243;-73
2024/04/06 02:25:47;;;;;;;5.10;4.50;;;13.60;99.90;;;;;;4993108;28;20191;-72
2024/04/06 02:28:13;;;;;;;6.07;3.90;;;13.60;99.90;;;;;;4992865;28;20674;-72
2024/04/06 02:30:39;;;;;;;5.47;4.03;;;13.50;99.90;;;;;;4993181;28;20181;-72
2024/04/06 02:33:05;;;;;;;4.07;3.67;;;13.50;99.90;;;;;;4992901;28;20212;-72
2024/04/06 02:35:31;;;;;;;4.67;4.10;;;13.40;99.90;;;;;;4993210;28;20295;-73
2024/04/06 02:37:57;;;;;;;6.93;4.00;;;13.40;99.90;;;;;;4992521;28;20292;-72
2024/04/06 02:40:23;;;;;;;4.40;4.00;;;13.30;99.90;;;;;;4992814;28;20173;-72
2024/04/06 02:42:48;;;;;;;5.33;4.13;;;13.30;99.90;;;;;;4992683;28;20200;-72
2024/04/06 02:45:14;;;;;;;4.57;4.17;;;13.30;99.90;;;;;;4992920;28;20180;-71
2024/04/06 02:47:39;;;;;;;4.50;4.10;;;13.30;99.90;;;;;;4992409;28;20173;-73
2024/04/06 02:50:05;;;;;;;4.20;3.80;;;13.20;99.90;;;;;;4992852;28;20181;-72
2024/04/06 02:52:31;;;;;;;5.20;3.93;;;13.20;99.90;;;;;;4992328;28;20208;-73
2024/04/06 02:54:56;;;;;;;7.50;4.27;;;13.20;99.90;;;;;;4992481;28;20294;-72
2024/04/06 02:57:22;;;;;;;6.07;4.23;;;13.10;99.90;;;;;;4992331;28;20180;-72
2024/04/06 02:59:49;;;;;;;7.73;4.40;;;13.10;99.90;;;;;;4992640;28;20243;-73
2024/04/06 03:02:15;;;;;;;8.23;4.27;;;13.10;99.90;;;;;;4992527;28;20216;-72
2024/04/06 03:04:41;;;;;;;4.80;4.30;;;13.10;99.90;;;;;;4992253;28;20255;-71
2024/04/06 03:07:07;;;;;;;6.97;4.60;;;13.10;99.90;;;;;;4992532;28;20765;-72
2024/04/06 03:09:35;;;;;;;4.43;4.00;;;13.10;99.90;;;;;;4992517;28;20227;-73
2024/04/06 03:12:04;;;;;;;4.77;4.07;;;13.10;99.90;;;;;;4992347;28;20295;-72
2024/04/06 03:14:30;;;;;;;8.57;3.93;;;13.10;99.90;;;;;;4992211;28;20203;-72
2024/04/06 03:16:55;;;;;;;4.20;3.90;;;13.10;99.90;;;;;;4991951;28;20172;-72
2024/04/06 03:19:21;;;;;;;6.27;4.27;;;13.00;99.90;;;;;;4992232;28;20645;-72
2024/04/06 03:21:48;;;;;;;6.90;4.77;;;13.00;99.90;;;;;;4992242;28;20193;-73
2024/04/06 03:24:13;;;;;;;5.83;4.67;;;13.00;99.90;;;;;;4992198;28;20181;-73
2024/04/06 03:26:44;;;;;;;5.10;4.70;;;13.00;99.90;;;;;;4992108;28;20231;-72
2024/04/06 03:29:10;;;;;;;4.50;4.10;;;13.00;99.90;;;;;;4992374;28;20296;-72
2024/04/06 03:31:36;;;;;;;4.87;4.30;;;13.00;99.90;;;;;;4992095;28;20208;-73
2024/04/06 03:34:01;;;;;;;4.77;4.33;;;13.00;99.90;;;;;;4991928;28;20712;-74
2024/04/06 03:36:27;;;;;;;4.50;4.10;;;13.00;99.90;;;;;;4992433;28;20185;-73
2024/04/06 03:38:53;;;;;;;4.63;4.20;;;13.00;99.90;;;;;;4991905;28;20169;-72
2024/04/06 03:41:18;;;;;;;4.67;4.17;;;12.90;99.90;;;;;;4992273;28;20271;-72
2024/04/06 03:43:44;;;;;;;4.60;4.20;;;12.90;99.90;;;;;;4992099;28;20177;-72
2024/04/06 03:46:09;;;;;;;5.33;4.20;;;12.90;99.90;;;;;;4992253;28;20571;-73
2024/04/06 03:48:35;;;;;;;4.70;4.30;;;12.90;99.90;;;;;;4991824;28;20187;-73
2024/04/06 03:51:00;;;;;;;5.47;4.93;;;12.90;99.90;;;;;;4991550;28;20192;-73
2024/04/06 03:53:31;;;;;;;5.80;4.43;;;12.90;99.90;;;;;;4991944;28;20184;-72
2024/04/06 03:55:56;;;;;;;7.20;4.47;;;12.90;99.90;;;;;;4995328;28;20204;-72
2024/04/06 03:58:22;;;;;;;6.37;4.40;;;12.90;99.90;;;;;;4995501;28;20177;-72
2024/04/06 04:00:48;;;;;;;5.90;5.10;;;12.90;99.90;;;;;;4995575;28;20180;-71
2024/04/06 04:03:14;;;;;;;6.57;4.40;;;12.90;99.90;;;;;;4995288;28;20197;-72
2024/04/06 04:05:40;;;;;;;6.33;4.67;;;12.90;99.90;;;;;;4995635;28;20188;-70
2024/04/06 04:08:06;;;;;;;6.03;4.70;;;12.90;99.90;;;;;;4995080;28;20204;-72
2024/04/06 04:10:32;;;;;;;6.10;5.00;;;12.80;99.90;;;;;;4995721;28;20205;-72
2024/04/06 04:12:58;;;;;;;5.57;4.30;;;12.80;99.90;;;;;;4995080;28;20197;-72
2024/04/06 04:15:23;;;;;;;4.83;4.43;;;12.80;99.90;;;;;;4995530;28;20764;-73
2024/04/06 04:17:49;;;;;;;6.03;4.63;;;12.90;99.90;;;;;;4994783;28;20184;-72
2024/04/06 04:20:15;;;;;;;6.47;4.27;;;12.90;99.90;;;;;;4995374;28;20173;-72
2024/04/06 04:22:40;;;;;;;5.23;4.67;;;12.90;99.90;;;;;;4995186;28;20189;-71
2024/04/06 04:25:07;;;;;;;5.00;4.50;;;12.90;99.90;;;;;;4995433;28;20268;-72
2024/04/06 04:27:33;;;;;;;5.27;4.60;;;12.90;99.90;;;;;;4994912;28;20169;-71
2024/04/06 04:29:59;;;;;;;5.60;4.90;;;12.90;99.90;;;;;;5010042;28;20741;-72
2024/04/06 04:32:24;;;;;;;7.30;4.30;;;12.90;99.90;;;;;;4994761;28;20216;-71
2024/04/06 04:34:50;;;;;;;6.20;4.50;;;12.80;99.90;;;;;;4994975;28;20219;-72
2024/04/06 04:37:15;;;;;;;6.57;4.77;;;12.80;99.90;;;;;;4995010;28;20184;-72
2024/04/06 04:39:41;;;;;;;6.53;4.40;;;12.80;99.90;;;;;;4994943;28;20256;-72
2024/04/06 04:42:07;;;;;;;5.17;4.67;;;12.70;99.90;;;;;;4994846;28;20188;-72
2024/04/06 04:44:33;;;;;;;11.87;5.00;;;12.70;99.90;;;;;;4994607;28;20287;-72
2024/04/06 04:46:58;;;;;;;6.00;4.77;;;12.70;99.90;;;;;;4994802;28;20576;-72
2024/04/06 04:49:25;;;;;;;5.80;4.70;;;12.70;99.90;;;;;;4994806;28;20181;-72
2024/04/06 04:51:51;;;;;;;5.33;4.80;;;12.70;99.90;;;;;;4994613;28;20196;-72
2024/04/06 04:54:16;;;;;;;6.70;4.80;;;12.70;99.90;;;;;;4994691;28;20620;-72
2024/04/06 04:56:42;;;;;;;8.10;4.37;;;12.70;99.90;;;;;;4994728;28;20705;-72
2024/04/06 04:59:07;;;;;;;5.37;4.83;;;12.70;99.90;;;;;;4994227;28;20576;-73
2024/04/06 05:01:33;;;;;;;4.67;4.20;;;12.70;99.90;;;;;;4994546;28;20192;-72
2024/04/06 05:03:59;;;;;;;4.80;4.40;;;12.70;99.90;;;;;;4994451;28;20180;-72
2024/04/06 05:06:24;;;;;;;4.67;4.27;;;12.80;99.90;;;;;;4993386;28;20575;-72
2024/04/06 05:08:50;;;;;;;4.37;4.00;;;12.80;99.90;;;;;;4993926;28;20184;-72
2024/04/06 05:11:16;;;;;;;5.37;4.90;;;12.80;99.90;;;;;;4994728;28;20294;-73
2024/04/06 05:13:41;;;;;;;4.43;4.13;;;12.80;99.90;;;;;;4994085;28;20169;-72
2024/04/06 05:16:07;;;;;;;4.63;4.23;;;12.90;99.90;;;;;;4994051;28;20220;-72
2024/04/06 05:18:33;;;;;;;4.93;4.43;;;12.90;99.90;;;;;;4993850;28;20179;-72
2024/04/06 05:21:00;;;;;;;4.97;4.03;;;12.90;99.90;;;;;;4994103;28;20169;-72
2024/04/06 05:23:27;;;;;;;4.70;4.30;;;13.00;99.90;;;;;;4994575;28;20222;-72
2024/04/06 05:25:53;;;;;;;4.73;4.30;;;13.00;99.90;;;;;;4994416;28;20172;-71
2024/04/06 05:28:23;;;;;;;4.80;4.40;;;13.10;99.90;;;;;;4993969;28;20778;-72
2024/04/06 05:30:50;;;;;;;4.23;3.93;;;13.10;99.90;;;;;;4994134;28;20177;-72
2024/04/06 05:33:20;;;;;;;4.77;4.23;;;13.10;99.90;;;;;;4993653;28;20215;-72
2024/04/06 05:35:48;;;;;;;6.77;4.57;;;13.20;99.90;;;;;;4992918;28;20228;-72
2024/04/06 05:38:17;;;;;;;6.50;4.53;;;13.30;99.90;;;;;;4994023;28;20224;-72
2024/04/06 05:40:45;;;;;;;6.50;3.90;;;13.30;99.90;;;;;;4994032;28;20165;-71
2024/04/06 05:43:11;;;;;;;5.40;4.20;;;13.40;99.90;;;;;;4993866;28;20706;-73
2024/04/06 05:45:38;;;;;;;11.07;4.50;;;13.50;99.90;;;;;;4993819;28;20176;-72
2024/04/06 05:48:05;;;;;;;4.70;4.30;;;13.50;99.90;;;;;;4993632;28;20212;-73
2024/04/06 05:50:34;;;;;;;4.03;3.70;;;13.60;99.90;;;;;;4993992;28;20316;-73
2024/04/06 05:53:00;;;;;;;3.80;3.50;;;13.70;99.90;;;;;;4993833;28;20228;-73
2024/04/06 05:55:26;;;;;;;4.90;4.10;;;13.70;99.90;;;;;;4993904;28;20266;-73
2024/04/06 05:57:52;;;;;;;4.53;3.80;;;13.80;99.90;;;;;;4993510;28;20174;-73
2024/04/06 06:00:18;;;;;;;4.10;3.70;;;13.80;99.90;;;;;;4993771;28;20200;-72
2024/04/06 06:02:44;;;;;;;8.93;4.17;;;13.90;99.90;;;;;;4993235;28;20307;-73
2024/04/06 06:05:10;;;;;;;7.87;7.27;;;13.90;99.90;;;;;;4993527;28;20670;-73
2024/04/06 06:07:36;;;;;;;3.83;3.53;;;13.90;99.90;;;;;;4993476;28;20212;-73
2024/04/06 06:10:03;;;;;;;4.83;4.10;;;14.00;99.90;;;;;;4994247;28;20547;-73
2024/04/06 06:12:28;;;;;;;4.20;3.73;;;14.00;99.90;;;;;;4993503;28;20242;-73
2024/04/06 06:14:54;;;;;;;5.13;4.00;;;14.10;99.90;;;;;;4994382;28;20555;-73
2024/04/06 06:17:20;;;;;;;4.27;3.87;;;14.10;99.90;;;;;;4993477;28;20389;-73
2024/04/06 06:19:46;;;;;;;6.03;4.30;;;14.20;99.90;;;;;;4993880;28;20193;-73
2024/04/06 06:22:12;;;;;;;4.20;3.80;;;14.40;99.90;;;;;;4993359;28;20224;-73
2024/04/06 06:24:38;;;;;;;5.80;4.10;;;14.60;99.90;;;;;;4993303;28;20646;-73
2024/04/06 06:27:05;;;;;;;3.93;3.43;;;14.80;99.90;;;;;;4993082;28;20251;-74
2024/04/06 06:29:32;;;;;;;5.27;4.87;;;14.90;99.90;;;;;;4993320;28;20200;-73
2024/04/06 06:31:57;;;;;;;4.73;3.50;;;15.10;99.90;;;;;;4992646;28;20248;-73
2024/04/06 06:34:23;;;;;;;6.60;3.70;;;15.40;99.90;;;;;;4992322;28;20231;-72
2024/04/06 06:36:51;;;;;;;5.40;3.60;;;15.60;99.90;;;;;;4992874;28;20548;-72
2024/04/06 06:39:17;;;;;;;6.27;3.40;;;15.90;99.90;;;;;;4993145;28;20165;-72
2024/04/06 06:41:43;;;;;;;3.93;3.40;;;16.10;99.90;;;;;;4992752;28;20193;-72
2024/04/06 06:44:08;;;;;;;3.63;3.33;;;16.40;99.90;;;;;;4992773;28;20165;-72
2024/04/06 06:46:35;;;;;;;3.83;3.33;;;16.70;99.90;;;;;;4993086;28;20209;-73
2024/04/06 06:49:01;;;;;;;7.97;3.77;;;17.00;99.90;;;;;;4992147;28;20180;-73
2024/04/06 06:51:26;;;;;;;4.83;3.10;;;17.40;99.90;;;;;;4992381;28;20193;-73
2024/04/06 06:53:53;;;;;;;3.77;3.47;;;17.80;99.90;;;;;;4992013;28;20259;-72
2024/04/06 06:56:22;;;;;;;4.00;3.43;;;18.30;99.90;;;;;;4992363;28;20620;-74
2024/04/06 06:58:51;;;;;;;4.30;3.00;;;18.80;99.90;;;;;;4990746;28;20183;-73
2024/04/06 07:01:17;;;;;;;3.03;2.83;;;19.30;99.90;;;;;;4991854;28;20188;-73
2024/04/06 07:03:43;;;;;;;5.43;3.20;;;19.80;99.90;;;;;;4991620;28;20256;-73
2024/04/06 07:06:12;;;;;;;5.57;3.20;;;20.10;99.90;;;;;;4991975;28;20262;-73
2024/04/06 07:08:38;;;;;;;4.10;2.88;;;20.40;99.90;;;;;;4990260;28;20203;-73
2024/04/06 07:11:04;;;;;;;3.95;2.70;;;20.80;99.90;;;;;;4991577;28;20231;-73
2024/04/06 07:13:30;;;;;;;3.20;2.90;;;21.00;99.90;;;;;;4991999;28;20181;-74
2024/04/06 07:16:09;;;;;;;2.92;2.60;;;21.10;99.90;;;;;;4991611;28;20204;-73
2024/04/06 07:18:38;;;;;;;3.45;3.03;;;21.20;99.90;;;;;;4990994;28;20168;-73
2024/04/06 07:21:08;;;;;;;4.32;2.80;;;21.40;99.90;;;;;;4991559;28;20251;-73
2024/04/06 07:23:34;;;;;;;4.10;3.25;;;21.60;99.90;;;;;;4991913;28;20630;-72
2024/04/06 07:26:00;;;;;;;4.65;2.83;;;21.50;99.90;;;;;;4991590;28;20211;-74
2024/04/06 07:28:25;;;;;;;4.28;3.10;;;21.40;99.90;;;;;;4991446;28;20608;-74
2024/04/06 07:30:51;;;;;;;4.78;3.28;;;21.20;99.90;;;;;;4994898;28;20180;-72
2024/04/06 07:33:16;;;;;;;4.47;2.95;;;21.10;99.90;;;;;;4995488;28;20212;-73
2024/04/06 07:35:42;;;;;;;3.25;2.88;;;21.10;99.90;;;;;;4996328;28;20204;-73
2024/04/06 07:38:08;;;;;;;9.55;2.78;;;21.20;99.90;;;;;;4995788;28;20184;-74
2024/04/06 07:40:33;;;;;;;3.88;2.70;;;21.40;99.90;;;;;;4995797;28;20180;-74
2024/04/06 07:43:00;;;;;;;5.38;2.78;;;21.50;99.90;;;;;;4995741;28;20204;-74
2024/04/06 07:45:26;;;;;;;3.00;2.80;;;21.60;99.90;;;;;;4995716;28;20580;-74
2024/04/06 07:47:52;;;;;;;5.13;2.65;;;21.70;99.90;;;;;;4995796;28;20169;-74
2024/04/06 07:50:18;;;;;;;6.93;2.70;;;21.90;99.90;;;;;;4995952;28;20181;-74
2024/04/06 07:52:44;;;;;;;3.80;2.67;;;22.10;99.90;;;;;;4995772;28;20205;-74
2024/04/06 07:55:11;;;;;;;4.13;2.70;;;22.20;99.90;;;;;;4995623;28;20201;-74
2024/04/06 07:57:37;;;;;;;4.53;2.63;;;22.30;99.90;;;;;;4995494;28;20173;-74
2024/04/06 08:00:03;;;;;;;3.17;2.30;;;22.60;99.90;;;;;;4995711;28;20722;-74
2024/04/06 08:02:30;;;;;;;4.03;2.67;;;22.80;99.90;;;;;;4995758;28;20281;-74
2024/04/06 08:04:56;;;;;;;2.83;2.55;;;23.00;99.90;;;;;;4995483;28;20512;-74
2024/04/06 08:07:25;;;;;;;3.53;2.40;;;23.20;99.90;;;;;;4994725;28;20268;-73
2024/04/06 08:10:00;;;;;;;2.83;2.30;;;23.30;99.90;;;;;;4994702;28;20695;-74
2024/04/06 08:12:27;;;;;;;3.03;2.40;;;23.30;99.90;;;;;;4994903;28;20198;-75
2024/04/06 08:14:52;;;;;;;9.63;2.83;;;23.40;99.90;;;;;;4994425;28;20231;-74
2024/04/06 08:17:18;;;;;;;6.53;2.33;;;23.50;99.90;;;;;;4994978;28;20173;-75
2024/04/06 08:19:44;;;;;;;4.10;2.70;;;23.50;99.90;;;;;;4994705;28;20212;-75
2024/04/06 08:22:09;;;;;;;3.00;2.50;;;23.50;99.90;;;;;;4994795;28;20243;-73
2024/04/06 08:24:35;;;;;;;2.78;2.10;;;23.70;99.90;;;;;;4995308;28;20226;-74
2024/04/06 08:27:01;;;;;;;2.00;1.83;;;23.70;99.90;;;;;;4995011;28;20658;-76
2024/04/06 08:29:26;;;;;;;4.88;2.75;;;23.60;99.90;;;;;;4995265;28;20177;-73
2024/04/06 08:31:52;;;;;;;2.70;2.50;;;23.50;99.90;;;;;;4995349;28;20208;-74
2024/04/06 08:34:17;;;;;;;2.67;1.98;;;23.30;99.90;;;;;;4994337;28;20189;-73
2024/04/06 08:36:43;;;;;;;2.97;1.92;;;23.30;99.90;;;;;;4994126;28;20218;-78
2024/04/06 08:39:08;;;;;;;3.20;2.28;;;23.10;99.90;;;;;;4995095;28;20248;-74
2024/04/06 08:41:34;;;;;;;2.03;1.90;;;23.00;99.90;;;;;;5009795;28;20540;-73
2024/04/06 08:44:01;;;;;;;5.32;2.45;;;23.00;99.90;;;;;;4994974;28;20176;-73
2024/04/06 08:46:28;;;;;;;2.75;1.98;;;23.00;99.90;;;;;;4995402;28;20203;-74
2024/04/06 08:48:53;;;;;;;3.58;2.15;;;23.00;99.90;;;;;;4994288;28;20618;-73
2024/04/06 08:51:20;;;;;;;2.33;2.08;;;23.00;99.90;;;;;;4994759;28;20250;-73
2024/04/06 08:53:46;;;;;;;2.45;1.90;;;23.10;99.90;;;;;;4994799;28;20207;-73
2024/04/06 08:56:15;;;;;;;3.75;1.92;;;23.20;99.90;;;;;;4994538;28;20642;-74
2024/04/06 08:58:42;;;;;;;2.30;2.10;;;23.30;99.90;;;;;;4994580;28;20168;-72
2024/04/06 09:01:07;;;;;;;2.75;1.95;;;23.50;99.90;;;;;;4994086;28;20173;-73
2024/04/06 09:03:33;;;;;;;5.63;2.30;;;23.70;99.90;;;;;;4991816;28;20231;-74
2024/04/06 09:05:59;;;;;;;4.05;2.10;;;23.90;99.90;;;;;;4993552;28;20612;-72
2024/04/06 09:08:25;;;;;;;2.58;2.10;;;23.90;99.90;;;;;;4992907;28;20263;-72
2024/04/06 09:10:57;;;;;;;2.10;1.90;;;24.00;99.90;;;;;;4991856;28;20264;-75
2024/04/06 09:13:28;;;;;;;2.67;2.10;;;24.10;99.90;;;;;;4992983;28;20200;-73
2024/04/06 09:15:53;;;;;;;5.60;2.03;;;24.10;99.90;;;;;;4993113;28;20199;-72
2024/04/06 09:18:19;;;;;;;4.72;2.20;;;24.30;99.90;;;;;;4993174;28;20181;-71
2024/04/06 09:20:51;;;;;;;3.30;1.92;;;24.50;99.90;;;;;;4993834;28;20257;-72
2024/04/06 09:23:17;;;;;;;3.58;2.15;;;24.50;99.90;;;;;;4992558;28;20189;-73
2024/04/06 09:25:43;;;;;;;3.38;2.22;;;24.60;99.90;;;;;;4993236;28;20228;-73
2024/04/06 09:28:11;;;;;;;4.55;1.92;;;24.90;99.90;;;;;;4993238;28;20246;-72
2024/04/06 09:30:47;;;;;;;2.08;1.80;;;25.30;99.90;;;;;;4994139;28;20247;-74
2024/04/06 09:33:15;;;;;;;5.10;2.00;;;25.70;99.90;;;;;;4993236;28;20664;-74
2024/04/06 09:35:41;;;;;;;2.05;1.85;;;25.80;99.90;;;;;;4993046;28;20205;-72
2024/04/06 09:38:13;;;;;;;6.18;1.90;;;26.20;99.90;;;;;;4992565;28;20195;-74
2024/04/06 09:40:42;;;;;;;2.58;1.70;;;26.40;99.90;;;;;;4993294;28;20165;-74
2024/04/06 09:43:09;;;;;;;1.70;1.60;;;26.60;99.30;;;;;;4992717;28;20192;-71
2024/04/06 09:45:35;;;;;;;3.25;2.30;;;26.70;97.20;;;;;;4993716;28;20232;-74
2024/04/06 09:48:02;;;;;;;1.95;1.77;;;26.60;96.80;;;;;;4993190;28;20173;-72
2024/04/06 09:50:30;;;;;;;6.28;1.90;;;26.40;96.80;;;;;;4993210;28;20169;-72
2024/04/06 09:52:56;;;;;;;4.78;1.95;;;26.30;96.50;;;;;;4992888;28;20197;-72
2024/04/06 09:55:26;;;;;;;2.38;1.80;;;26.40;97.40;;;;;;4993151;28;20231;-71
2024/04/06 09:57:52;;;;;;;2.50;1.98;;;26.60;96.80;;;;;;4993354;28;20169;-72
2024/04/06 10:00:18;;;;;;;2.17;1.90;;;26.50;96.30;;;;;;4993417;28;20559;-73
2024/04/06 10:02:43;;;;;;;2.63;2.20;;;26.50;96.40;;;;;;4994356;28;20541;-74
2024/04/06 10:05:11;;;;;;;3.92;1.98;;;26.50;95.70;;;;;;4993877;28;20227;-72
2024/04/06 10:07:37;;;;;;;2.10;1.90;;;26.40;95.50;;;;;;4993335;28;20183;-74
2024/04/06 10:10:04;;;;;;;2.38;2.00;;;26.20;95.60;;;;;;4993240;28;20177;-73
2024/04/06 10:12:56;;;;;;;2.20;1.90;;;26.20;94.80;;;;;;4973926;28;20251;-73
2024/04/06 10:15:22;;;;;;;2.60;2.40;;;26.20;94.40;;;;;;4973167;28;20790;-72
2024/04/06 10:17:50;;;;;;;2.72;2.08;;;26.20;96.10;;;;;;4973615;28;20213;-71
2024/04/06 10:20:26;;;;;;;2.42;2.00;;;26.20;95.80;;;;;;4973924;28;20165;-72
2024/04/06 10:22:54;;;;;;;3.17;2.00;;;26.20;94.30;;;;;;4982034;28;20207;-74
2024/04/06 10:25:30;;;;;;;2.25;1.90;;;26.00;93.90;;;;;;4992878;28;20181;-72
2024/04/06 10:28:03;;;;;;;2.10;1.65;;;25.90;94.00;;;;;;4991670;28;20237;-73
2024/04/06 10:30:30;;;;;;;3.00;1.88;;;25.90;93.60;;;;;;4993082;28;20204;-72
2024/04/06 10:32:55;;;;;;;2.78;2.30;;;25.70;93.00;;;;;;4992796;28;20239;-74
2024/04/06 10:35:21;;;;;;;3.17;2.28;;;25.60;92.60;;;;;;4992661;28;20213;-72
2024/04/06 10:37:48;;;;;;;2.20;2.00;;;25.80;93.60;;;;;;4992330;28;20173;-73
2024/04/06 10:40:14;;;;;;;4.47;1.80;;;26.00;93.90;;;;;;4992258;28;20689;-73
2024/04/06 10:42:40;;;;;;;1.90;1.80;;;26.30;92.80;;;;;;4992648;28;20205;-73
2024/04/06 10:45:08;;;;;;;2.03;1.85;;;26.50;93.30;;;;;;4992792;28;20692;-73
2024/04/06 10:47:34;;;;;;;2.33;2.10;;;26.80;90.20;;;;;;4992620;28;20187;-73
2024/04/06 10:50:00;;;;;;;4.20;2.08;;;26.90;90.40;;;;;;4992862;28;20201;-75
2024/04/06 10:52:28;;;;;;;3.50;2.13;;;27.00;89.00;;;;;;4992431;28;20216;-73
2024/04/06 10:54:55;;;;;;;3.30;1.90;;;27.10;90.10;;;;;;4992369;28;20188;-74
2024/04/06 10:57:22;;;;;;;2.22;1.85;;;27.20;86.40;;;;;;4992834;28;20717;-72
2024/04/06 10:59:48;;;;;;;2.97;2.38;;;27.40;88.60;;;;;;4992873;28;20256;-74
2024/04/06 11:02:15;;;;;;;3.40;1.73;;;27.60;85.70;;;;;;4992820;28;20606;-71
2024/04/06 11:04:40;;;;;;;2.63;1.95;;;27.70;85.00;;;;;;4992063;28;20673;-74
2024/04/06 11:07:06;;;;;;;3.05;1.95;;;27.80;86.00;;;;;;4992384;28;20177;-73
2024/04/06 11:09:34;;;;;;;4.18;2.10;;;27.90;80.90;;;;;;4992333;28;20205;-74
2024/04/06 11:12:01;;;;;;;2.55;1.80;;;28.00;81.00;;;;;;4993088;28;20215;-74
2024/04/06 11:14:26;;;;;;;6.38;1.77;;;28.00;79.20;;;;;;4992443;28;20208;-74
2024/04/06 11:16:53;;;;;;;2.55;1.90;;;27.90;78.10;;;;;;4992448;28;20568;-74
2024/04/06 11:19:20;;;;;;;4.00;2.00;;;28.00;77.60;;;;;;4992289;28;20183;-73
2024/04/06 11:21:46;;;;;;;8.00;1.70;;;27.80;75.70;;;;;;4992582;28;20258;-73
2024/04/06 11:24:13;;;;;;;3.13;1.90;;;27.70;76.30;;;;;;4992150;28;20161;-74
2024/04/06 11:26:38;;;;;;;2.17;1.98;;;27.60;76.00;;;;;;4992676;28;20175;-73
2024/04/06 11:29:04;;;;;;;3.72;1.80;;;27.60;76.10;;;;;;4992633;28;20248;-73
2024/04/06 11:31:30;;;;;;;4.78;2.20;;;27.70;73.30;;;;;;4991693;28;20215;-74
2024/04/06 11:33:58;;;;;;;3.50;1.83;;;27.60;72.00;;;;;;4991870;28;20172;-73
2024/04/06 11:36:23;;;;;;;5.47;2.00;;;27.50;71.40;;;;;;4991290;28;20727;-75
2024/04/06 11:38:49;;;;;;;6.93;2.08;;;27.50;70.80;;;;;;4991529;28;20252;-75
2024/04/06 11:41:14;;;;;;;4.93;2.08;;;27.70;75.60;;;;;;4991870;28;20583;-74
2024/04/06 11:43:40;;;;;;;4.78;2.10;;;28.00;79.30;;;;;;4991905;28;20299;-74
2024/04/06 11:46:06;;;;;;;5.32;2.03;;;28.20;74.40;;;;;;4991951;28;20714;-75
2024/04/06 11:48:32;;;;;;;3.70;2.25;;;28.50;76.90;;;;;;4991924;28;20180;-74
2024/04/06 11:50:58;;;;;;;3.70;2.08;;;28.70;74.00;;;;;;4991798;28;20180;-74
2024/04/06 11:53:23;;;;;;;2.67;2.00;;;28.70;71.20;;;;;;4991124;28;20197;-73
2024/04/06 11:55:49;;;;;;;2.70;2.20;;;28.80;72.60;;;;;;4990914;28;20237;-74
2024/04/06 11:58:15;;;;;;;5.10;2.05;;;28.80;70.20;;;;;;4991254;28;20162;-74
2024/04/06 12:00:41;;;;;;;1.67;1.58;;;28.80;73.10;;;;;;4991497;28;20586;-74
2024/04/06 12:03:07;;;;;;;1.80;1.60;;;28.80;75.90;;;;;;4991221;28;20268;-74
2024/04/06 12:05:32;;;;;;;2.22;1.80;;;28.80;71.60;;;;;;4991110;28;20185;-74
2024/04/06 12:07:58;;;;;;;3.35;2.00;;;28.80;71.50;;;;;;4991228;28;20188;-73
2024/04/06 12:10:24;;;;;;;3.05;2.17;;;28.80;70.60;;;;;;4991686;28;20192;-74
2024/04/06 12:12:49;;;;;;;3.20;1.70;;;28.70;72.10;;;;;;4991451;28;20272;-75
2024/04/06 12:15:15;;;;;;;2.17;1.98;;;28.70;71.00;;;;;;4990712;28;20251;-74
2024/04/06 12:17:41;;;;;;;2.40;2.20;;;28.60;73.40;;;;;;4994892;28;20180;-73
2024/04/06 12:20:08;;;;;;;3.15;2.08;;;28.40;70.30;;;;;;4994575;28;20173;-74
2024/04/06 12:22:33;;;;;;;1.90;1.80;;;28.20;68.70;;;;;;4994800;28;20227;-74
2024/04/06 12:24:59;;;;;;;2.25;2.08;;;28.20;72.70;;;;;;4995014;28;20185;-74
2024/04/06 12:27:25;;;;;;;2.03;1.80;;;28.40;73.70;;;;;;4994557;28;20180;-74
2024/04/06 12:29:50;;;;;;;3.05;1.80;;;28.70;72.20;;;;;;4994982;28;20173;-74
2024/04/06 12:32:17;;;;;;;1.90;1.80;;;28.80;69.00;;;;;;4994419;28;20212;-74
2024/04/06 12:34:42;;;;;;;1.98;1.80;;;29.00;70.40;;;;;;4994914;28;20250;-73
2024/04/06 12:37:10;;;;;;;3.95;1.90;;;29.00;68.50;;;;;;4994466;28;20169;-74
2024/04/06 12:39:38;;;;;;;2.05;1.95;;;29.00;69.20;;;;;;4994225;28;20169;-74
2024/04/06 12:42:06;;;;;;;2.13;1.70;;;29.00;64.60;;;;;;4994437;28;20227;-72
2024/04/06 12:44:34;;;;;;;7.35;1.90;;;28.90;68.80;;;;;;4994253;28;20181;-73